createdAt,value
2017-09-03T00:01:58.092Z,10.10
2017-09-03T00:04:25.883Z,10.10
2017-09-03T00:06:53.391Z,10.10
2017-09-03T00:09:20.897Z,10.20
2017-09-03T00:11:48.459Z,10.20
2017-09-03T00:14:15.981Z,10.10
2017-09-03T00:16:43.487Z,10.10
2017-09-03T00:19:11.396Z,10.00
2017-09-03T00:21:38.899Z,9.90
2017-09-03T00:24:06.412Z,9.90
2017-09-03T00:26:33.995Z,10.10
2017-09-03T00:29:01.510Z,10.20
2017-09-03T00:31:29.019Z,10.20
2017-09-03T00:33:56.579Z,10.10
2017-09-03T00:36:24.097Z,10.10
2017-09-03T00:38:51.610Z,10.10
2017-09-03T00:41:19.516Z,10.10
2017-09-03T00:43:47.031Z,10.00
2017-09-03T00:46:14.543Z,10.00
2017-09-03T00:48:42.208Z,10.00
2017-09-03T00:51:09.742Z,10.00
2017-09-03T00:53:37.254Z,10.00
2017-09-03T00:56:04.819Z,10.00
2017-09-03T00:58:32.322Z,10.10
2017-09-03T01:00:59.827Z,10.20
2017-09-03T01:03:27.389Z,10.00
2017-09-03T01:05:54.895Z,10.00
2017-09-03T01:08:22.436Z,9.90
2017-09-03T01:10:49.983Z,9.90
2017-09-03T01:13:17.492Z,10.00
2017-09-03T01:15:45.011Z,10.00
2017-09-03T01:18:13.196Z,10.00
2017-09-03T01:20:40.709Z,9.90
2017-09-03T01:23:08.215Z,9.90
2017-09-03T01:25:35.776Z,9.70
2017-09-03T01:28:03.361Z,9.60
2017-09-03T01:30:30.891Z,9.50
2017-09-03T01:32:58.688Z,9.30
2017-09-03T01:35:26.199Z,9.20
2017-09-03T01:37:53.708Z,9.20
2017-09-03T01:40:21.496Z,9.20
2017-09-03T01:42:49.213Z,9.20
2017-09-03T01:45:16.816Z,9.30
2017-09-03T01:50:18.131Z,9.30
2017-09-03T01:52:45.692Z,9.10
2017-09-03T01:55:13.211Z,9.30
2017-09-03T01:57:40.715Z,9.20
2017-09-03T02:00:08.276Z,9.10
2017-09-03T02:02:35.793Z,9.00
2017-09-03T02:05:03.296Z,8.90
2017-09-03T02:07:30.840Z,8.90
2017-09-03T02:09:58.739Z,9.00
2017-09-03T02:12:26.248Z,8.80
2017-09-03T02:14:53.804Z,8.70
2017-09-03T02:17:21.315Z,8.70
2017-09-03T02:19:48.828Z,8.70
2017-09-03T02:22:16.363Z,8.70
2017-09-03T02:24:43.871Z,8.80
2017-09-03T02:27:11.504Z,8.80
2017-09-03T02:29:39.087Z,8.80
2017-09-03T02:32:06.600Z,8.70
2017-09-03T02:34:34.111Z,8.60
2017-09-03T02:37:01.678Z,8.60
2017-09-03T02:39:29.203Z,8.50
2017-09-03T02:41:56.707Z,8.60
2017-09-03T02:44:24.267Z,8.60
2017-09-03T02:46:51.788Z,8.50
2017-09-03T02:49:19.305Z,8.50
2017-09-03T02:51:47.195Z,8.40
2017-09-03T02:54:14.723Z,8.40
2017-09-03T02:56:42.236Z,8.50
2017-09-03T02:59:09.812Z,8.50
2017-09-03T03:01:37.326Z,8.60
2017-09-03T03:04:04.832Z,8.70
2017-09-03T03:06:32.400Z,8.70
2017-09-03T03:08:59.957Z,8.70
2017-09-03T03:11:27.480Z,8.70
2017-09-03T03:13:55.035Z,8.70
2017-09-03T03:16:22.541Z,8.60
2017-09-03T03:18:50.051Z,8.50
2017-09-03T03:21:17.938Z,8.20
2017-09-03T03:23:45.439Z,8.30
2017-09-03T03:26:12.941Z,8.30
2017-09-03T03:28:40.476Z,8.40
2017-09-03T03:31:07.988Z,8.50
2017-09-03T03:33:35.500Z,8.50
2017-09-03T03:36:03.051Z,8.40
2017-09-03T03:38:30.555Z,8.40
2017-09-03T03:40:58.059Z,8.30
2017-09-03T03:43:25.619Z,8.20
2017-09-03T03:45:53.130Z,8.40
2017-09-03T03:48:20.639Z,8.60
2017-09-03T03:50:48.203Z,8.40
2017-09-03T03:53:15.718Z,8.40
2017-09-03T03:55:43.225Z,8.50
2017-09-03T03:58:11.302Z,8.40
2017-09-03T04:00:38.823Z,8.30
2017-09-03T04:03:06.327Z,8.40
2017-09-03T04:05:34.213Z,8.40
2017-09-03T04:08:01.724Z,8.40
2017-09-03T04:10:29.227Z,8.60
2017-09-03T04:12:56.755Z,8.80
2017-09-03T04:15:24.257Z,8.90
2017-09-03T04:17:51.806Z,8.90
2017-09-03T04:20:19.703Z,8.90
2017-09-03T04:22:47.203Z,8.90
2017-09-03T04:25:14.715Z,8.80
2017-09-03T04:27:42.280Z,8.80
2017-09-03T04:30:09.799Z,8.90
2017-09-03T04:32:37.302Z,9.10
2017-09-03T04:35:05.091Z,9.20
2017-09-03T04:37:32.604Z,9.30
2017-09-03T04:40:00.118Z,9.40
2017-09-03T04:42:27.678Z,9.50
2017-09-03T04:44:55.186Z,9.60
2017-09-03T04:47:22.691Z,9.70
2017-09-03T04:49:50.235Z,9.90
2017-09-03T04:52:17.743Z,9.90
2017-09-03T04:54:45.248Z,9.80
2017-09-03T04:57:13.036Z,9.70
2017-09-03T04:59:40.549Z,9.80
2017-09-03T05:02:08.064Z,9.90
2017-09-03T05:04:35.604Z,10.00
2017-09-03T05:07:03.124Z,10.10
2017-09-03T05:09:30.635Z,10.00
2017-09-03T05:11:58.187Z,9.90
2017-09-03T05:14:25.695Z,9.80
2017-09-03T05:16:53.204Z,9.90
2017-09-03T05:19:20.760Z,10.00
2017-09-03T05:21:48.270Z,10.00
2017-09-03T05:24:15.783Z,10.00
2017-09-03T05:26:43.339Z,10.10
2017-09-03T05:29:10.851Z,10.20
2017-09-03T05:31:38.387Z,10.20
2017-09-03T05:34:05.988Z,10.30
2017-09-03T05:36:33.490Z,10.30
2017-09-03T05:39:01.007Z,10.30
2017-09-03T05:41:28.564Z,10.30
2017-09-03T05:43:56.080Z,10.40
2017-09-03T05:46:23.587Z,10.20
2017-09-03T05:48:51.154Z,10.20
2017-09-03T05:51:18.704Z,10.30
2017-09-03T05:53:46.211Z,10.30
2017-09-03T05:56:14.120Z,10.50
2017-09-03T05:58:41.622Z,10.60
2017-09-03T06:01:09.143Z,10.70
2017-09-03T06:03:36.951Z,10.80
2017-09-03T06:06:04.454Z,10.90
2017-09-03T06:08:31.967Z,11.00
2017-09-03T06:10:59.523Z,11.00
2017-09-03T06:13:27.039Z,11.00
2017-09-03T06:15:54.558Z,11.10
2017-09-03T06:18:22.100Z,11.10
2017-09-03T06:20:49.602Z,11.20
2017-09-03T06:23:17.111Z,11.20
2017-09-03T06:25:44.677Z,11.40
2017-09-03T06:28:12.191Z,11.50
2017-09-03T06:30:39.703Z,11.70
2017-09-03T06:33:07.260Z,11.80
2017-09-03T06:35:34.775Z,11.80
2017-09-03T06:38:02.295Z,11.90
2017-09-03T06:40:29.854Z,12.00
2017-09-03T06:42:57.369Z,12.10
2017-09-03T06:45:24.887Z,12.20
2017-09-03T06:47:52.451Z,12.40
2017-09-03T06:50:19.957Z,12.60
2017-09-03T06:52:47.478Z,12.80
2017-09-03T06:55:15.277Z,12.90
2017-09-03T06:57:42.792Z,12.90
2017-09-03T07:00:10.308Z,12.80
2017-09-03T07:02:37.872Z,12.90
2017-09-03T07:05:05.376Z,13.10
2017-09-03T07:07:32.887Z,13.50
2017-09-03T07:10:00.437Z,13.60
2017-09-03T07:12:27.946Z,13.60
2017-09-03T07:14:55.452Z,14.10
2017-09-03T07:17:22.986Z,14.60
2017-09-03T07:19:50.491Z,15.00
2017-09-03T07:22:17.999Z,15.40
2017-09-03T07:24:45.547Z,15.40
2017-09-03T07:27:13.053Z,15.50
2017-09-03T07:29:40.555Z,15.40
2017-09-03T07:32:08.459Z,15.60
2017-09-03T07:34:35.971Z,15.60
2017-09-03T07:37:03.482Z,15.70
2017-09-03T07:39:31.061Z,15.90
2017-09-03T07:41:58.576Z,16.00
2017-09-03T07:44:26.084Z,15.90
2017-09-03T07:46:53.648Z,15.70
2017-09-03T07:49:21.147Z,15.70
2017-09-03T07:51:48.658Z,15.60
2017-09-03T07:54:16.586Z,15.90
2017-09-03T07:56:44.091Z,16.00
2017-09-03T07:59:11.597Z,16.40
2017-09-03T08:01:39.384Z,16.50
2017-09-03T08:04:06.908Z,16.70
2017-09-03T08:06:34.407Z,16.80
2017-09-03T08:09:01.963Z,16.80
2017-09-03T08:11:29.474Z,17.00
2017-09-03T08:13:56.988Z,17.40
2017-09-03T08:16:24.555Z,17.70
2017-09-03T08:18:52.063Z,18.10
2017-09-03T08:21:19.572Z,18.60
2017-09-03T08:23:47.131Z,18.70
2017-09-03T08:26:15.411Z,19.30
2017-09-03T08:28:42.915Z,19.20
2017-09-03T08:31:10.479Z,19.30
2017-09-03T08:33:37.994Z,19.30
2017-09-03T08:36:05.529Z,19.10
2017-09-03T08:38:33.092Z,18.40
2017-09-03T08:41:00.604Z,17.80
2017-09-03T08:43:28.122Z,17.60
2017-09-03T08:45:55.690Z,17.90
2017-09-03T08:48:23.203Z,17.80
2017-09-03T08:50:50.711Z,17.80
2017-09-03T08:53:18.275Z,18.10
2017-09-03T08:55:45.795Z,18.20
2017-09-03T08:58:13.311Z,18.20
2017-09-03T09:00:40.863Z,18.20
2017-09-03T09:03:08.373Z,18.10
2017-09-03T09:05:35.885Z,18.10
2017-09-03T09:08:03.425Z,17.70
2017-09-03T09:10:30.939Z,18.10
2017-09-03T09:12:58.455Z,18.80
2017-09-03T09:15:26.344Z,19.70
2017-09-03T09:17:53.851Z,19.40
2017-09-03T09:20:21.346Z,19.50
2017-09-03T09:22:48.891Z,19.80
2017-09-03T09:25:16.395Z,20.00
2017-09-03T09:27:43.899Z,19.90
2017-09-03T09:30:11.795Z,20.00
2017-09-03T09:32:40.319Z,20.10
2017-09-03T09:35:07.839Z,20.50
2017-09-03T09:37:35.406Z,20.80
2017-09-03T09:40:02.921Z,20.90
2017-09-03T09:42:30.424Z,19.90
2017-09-03T09:44:57.987Z,20.00
2017-09-03T09:47:25.504Z,20.20
2017-09-03T09:49:53.015Z,20.00
2017-09-03T09:52:21.023Z,20.90
2017-09-03T09:54:48.535Z,20.50
2017-09-03T09:57:16.081Z,20.80
2017-09-03T09:59:43.651Z,21.30
2017-09-03T10:02:11.163Z,21.50
2017-09-03T10:04:38.687Z,21.00
2017-09-03T10:07:06.240Z,20.80
2017-09-03T10:09:33.743Z,20.60
2017-09-03T10:12:01.251Z,20.60
2017-09-03T10:14:28.803Z,20.80
2017-09-03T10:16:56.308Z,20.60
2017-09-03T10:19:23.814Z,20.70
2017-09-03T10:21:51.720Z,20.90
2017-09-03T10:24:19.233Z,21.20
2017-09-03T10:26:46.747Z,21.10
2017-09-03T10:29:14.568Z,20.80
2017-09-03T10:31:42.084Z,20.90
2017-09-03T10:34:09.588Z,21.00
2017-09-03T10:36:37.138Z,21.70
2017-09-03T10:39:04.643Z,23.40
2017-09-03T10:41:32.151Z,24.70
2017-09-03T10:43:59.707Z,26.00
2017-09-03T10:46:27.215Z,27.50
2017-09-03T10:48:54.720Z,27.50
2017-09-03T10:51:22.524Z,28.20
2017-09-03T10:53:50.027Z,29.50
2017-09-03T10:56:17.539Z,30.60
2017-09-03T10:58:45.441Z,29.40
2017-09-03T11:01:12.955Z,27.10
2017-09-03T11:03:40.467Z,26.90
2017-09-03T11:06:09.023Z,26.60
2017-09-03T11:08:36.536Z,25.70
2017-09-03T11:11:04.039Z,25.10
2017-09-03T11:13:31.591Z,23.60
2017-09-03T11:15:59.103Z,23.60
2017-09-03T11:18:26.616Z,23.20
2017-09-03T11:20:54.164Z,21.60
2017-09-03T11:23:21.667Z,20.90
2017-09-03T11:25:49.166Z,19.90
2017-09-03T11:28:16.959Z,20.20
2017-09-03T11:30:44.472Z,20.30
2017-09-03T11:33:11.976Z,20.20
2017-09-03T11:35:39.534Z,20.30
2017-09-03T11:38:07.043Z,21.20
2017-09-03T11:40:34.572Z,22.50
2017-09-03T11:43:02.111Z,23.10
2017-09-03T11:45:29.627Z,23.50
2017-09-03T11:47:57.137Z,24.70
2017-09-03T11:50:24.691Z,23.90
2017-09-03T11:52:52.203Z,23.20
2017-09-03T11:55:19.711Z,23.30
2017-09-03T11:57:47.494Z,23.60
2017-09-03T12:00:15.042Z,23.00
2017-09-03T12:02:42.546Z,22.90
2017-09-03T12:05:10.360Z,23.70
2017-09-03T12:07:37.866Z,24.20
2017-09-03T12:10:05.374Z,23.80
2017-09-03T12:12:32.976Z,23.20
2017-09-03T12:15:00.476Z,21.80
2017-09-03T12:17:27.975Z,21.40
2017-09-03T12:19:55.527Z,21.00
2017-09-03T12:22:23.031Z,21.70
2017-09-03T12:24:50.536Z,22.90
2017-09-03T12:27:18.336Z,23.10
2017-09-03T12:29:45.831Z,24.20
2017-09-03T12:32:13.324Z,25.00
2017-09-03T12:34:40.879Z,24.50
2017-09-03T12:37:08.376Z,23.80
2017-09-03T12:39:35.879Z,23.20
2017-09-03T12:42:03.742Z,23.10
2017-09-03T12:44:31.251Z,22.70
2017-09-03T12:46:58.784Z,22.10
2017-09-03T12:49:26.335Z,21.00
2017-09-03T12:51:53.830Z,20.80
2017-09-03T12:54:21.322Z,20.90
2017-09-03T12:56:48.876Z,20.80
2017-09-03T12:59:16.392Z,21.20
2017-09-03T13:01:43.899Z,21.10
2017-09-03T13:04:11.451Z,21.10
2017-09-03T13:06:38.951Z,20.40
2017-09-03T13:09:06.460Z,20.70
2017-09-03T13:11:34.015Z,20.70
2017-09-03T13:14:01.523Z,21.40
2017-09-03T13:16:29.023Z,21.80
2017-09-03T13:18:56.577Z,23.00
2017-09-03T13:21:24.083Z,23.80
2017-09-03T13:23:51.578Z,24.50
2017-09-03T13:26:19.466Z,25.20
2017-09-03T13:28:46.964Z,25.80
2017-09-03T13:31:14.460Z,26.30
2017-09-03T13:33:42.006Z,25.30
2017-09-03T13:36:09.516Z,24.40
2017-09-03T13:38:37.020Z,22.10
2017-09-03T13:41:04.809Z,22.40
2017-09-03T13:43:32.319Z,22.30
2017-09-03T13:45:59.818Z,22.20
2017-09-03T13:48:27.388Z,21.80
2017-09-03T13:50:54.908Z,20.70
2017-09-03T13:53:22.415Z,20.10
2017-09-03T13:55:49.966Z,20.00
2017-09-03T13:58:17.485Z,20.20
2017-09-03T14:00:44.998Z,20.40
2017-09-03T14:03:13.319Z,20.80
2017-09-03T14:05:40.827Z,20.80
2017-09-03T14:08:08.331Z,20.80
2017-09-03T14:10:35.875Z,20.90
2017-09-03T14:13:03.393Z,20.40
2017-09-03T14:15:30.903Z,20.10
2017-09-03T14:17:58.457Z,19.70
2017-09-03T14:20:25.961Z,19.80
2017-09-03T14:22:53.460Z,20.10
2017-09-03T14:25:21.009Z,20.20
2017-09-03T14:27:48.509Z,19.80
2017-09-03T14:30:16.012Z,19.50
2017-09-03T14:32:43.558Z,19.60
2017-09-03T14:35:11.084Z,20.10
2017-09-03T14:37:38.588Z,20.20
2017-09-03T14:40:06.129Z,20.10
2017-09-03T14:42:33.633Z,20.10
2017-09-03T14:45:01.135Z,20.70
2017-09-03T14:47:28.659Z,19.70
2017-09-03T14:49:56.180Z,20.10
2017-09-03T14:52:23.735Z,19.90
2017-09-03T14:54:51.247Z,20.20
2017-09-03T14:57:18.755Z,20.40
2017-09-03T14:59:46.622Z,20.40
2017-09-03T15:02:14.127Z,20.20
2017-09-03T15:04:41.651Z,20.10
2017-09-03T15:07:09.208Z,20.10
2017-09-03T15:09:36.739Z,19.60
2017-09-03T15:12:04.240Z,19.80
2017-09-03T15:14:31.891Z,19.70
2017-09-03T15:16:59.388Z,19.60
2017-09-03T15:19:26.899Z,19.50
2017-09-03T15:21:54.452Z,19.50
2017-09-03T15:24:21.950Z,20.60
2017-09-03T15:26:49.447Z,21.30
2017-09-03T15:29:17.001Z,22.00
2017-09-03T15:31:44.521Z,21.20
2017-09-03T15:34:12.023Z,20.20
2017-09-03T15:36:39.563Z,19.80
2017-09-03T15:39:07.074Z,20.20
2017-09-03T15:41:34.583Z,20.30
2017-09-03T15:44:02.136Z,20.20
2017-09-03T15:46:29.636Z,20.30
2017-09-03T15:48:57.134Z,20.60
2017-09-03T15:51:24.699Z,20.60
2017-09-03T15:53:52.199Z,20.60
2017-09-03T15:56:19.703Z,20.50
2017-09-03T15:58:47.513Z,20.30
2017-09-03T16:01:15.011Z,20.60
2017-09-03T16:03:42.521Z,21.50
2017-09-03T16:06:10.314Z,21.80
2017-09-03T16:08:37.815Z,22.20
2017-09-03T16:11:05.318Z,21.60
2017-09-03T16:13:32.870Z,22.00
2017-09-03T16:16:00.364Z,22.60
2017-09-03T16:18:27.870Z,22.20
2017-09-03T16:20:55.423Z,22.50
2017-09-03T16:23:22.931Z,22.80
2017-09-03T16:25:50.440Z,22.30
2017-09-03T16:28:17.995Z,21.60
2017-09-03T16:30:45.500Z,20.80
2017-09-03T16:33:12.999Z,20.30
2017-09-03T16:35:40.888Z,19.90
2017-09-03T16:38:08.394Z,19.50
2017-09-03T16:40:35.894Z,19.50
2017-09-03T16:43:03.457Z,19.50
2017-09-03T16:45:30.964Z,19.40
2017-09-03T16:47:58.467Z,19.10
2017-09-03T16:50:26.007Z,19.00
2017-09-03T16:52:53.510Z,18.60
2017-09-03T16:55:21.053Z,18.50
2017-09-03T16:57:48.607Z,18.30
2017-09-03T17:00:16.113Z,17.90
2017-09-03T17:02:43.615Z,17.90
2017-09-03T17:05:11.178Z,17.90
2017-09-03T17:07:38.680Z,17.70
2017-09-03T17:10:06.184Z,17.50
2017-09-03T17:12:33.735Z,17.40
2017-09-03T17:15:01.239Z,17.40
2017-09-03T17:17:28.760Z,17.30
2017-09-03T17:19:56.316Z,17.30
2017-09-03T17:22:23.815Z,17.20
2017-09-03T17:24:51.329Z,17.10
2017-09-03T17:27:19.206Z,16.80
2017-09-03T17:29:46.699Z,16.50
2017-09-03T17:32:14.203Z,16.50
2017-09-03T17:34:47.319Z,16.40
2017-09-03T17:37:24.723Z,16.30
2017-09-03T17:39:53.109Z,16.10
2017-09-03T17:42:28.075Z,16.00
2017-09-03T17:44:55.649Z,15.80
2017-09-03T17:47:23.204Z,15.60
2017-09-03T17:49:50.699Z,15.30
2017-09-03T17:52:19.262Z,14.90
2017-09-03T17:54:46.759Z,14.90
2017-09-03T17:57:14.297Z,14.70
2017-09-03T17:59:41.862Z,14.60
2017-09-03T18:02:09.355Z,14.50
2017-09-03T18:17:57.193Z,13.80
2017-09-03T18:20:24.696Z,13.60
2017-09-03T18:22:52.971Z,13.30
2017-09-03T18:25:21.578Z,13.20
2017-09-03T18:27:49.078Z,13.20
2017-09-03T18:30:17.047Z,13.20
2017-09-03T18:32:44.607Z,13.10
2017-09-03T18:35:12.122Z,13.00
2017-09-03T18:51:02.770Z,12.50
2017-09-03T18:53:30.940Z,12.50
2017-09-03T18:55:58.456Z,12.30
2017-09-03T18:58:28.591Z,12.20
2017-09-03T19:00:56.491Z,12.10
2017-09-03T19:03:38.927Z,12.10
2017-09-03T19:06:17.118Z,12.00
2017-09-03T19:08:44.912Z,11.90
2017-09-03T19:11:12.430Z,12.10
2017-09-03T19:13:39.948Z,12.00
2017-09-03T19:16:07.529Z,12.00
2017-09-03T19:18:35.036Z,12.00
2017-09-03T19:21:02.543Z,11.90
2017-09-03T19:23:30.105Z,11.80
2017-09-03T19:25:57.617Z,11.80
2017-09-03T19:28:25.145Z,11.80
2017-09-03T19:30:53.052Z,11.80
2017-09-03T19:33:20.591Z,11.70
2017-09-03T19:35:48.092Z,11.70
2017-09-03T19:38:16.096Z,11.60
2017-09-03T19:40:43.603Z,11.50
2017-09-03T19:43:11.114Z,11.50
2017-09-03T19:45:38.667Z,11.50
2017-09-03T19:48:06.180Z,11.40
2017-09-03T19:50:33.691Z,11.30
2017-09-03T19:53:01.256Z,11.20
2017-09-03T19:55:28.796Z,11.10
2017-09-03T19:57:56.304Z,11.10
2017-09-03T20:00:23.860Z,11.10
2017-09-03T20:02:51.366Z,11.10
2017-09-03T20:05:18.870Z,11.10
2017-09-03T20:07:46.453Z,11.10
2017-09-03T20:10:13.972Z,11.10
2017-09-03T20:12:41.486Z,11.20
2017-09-03T20:15:09.375Z,11.10
2017-09-03T20:17:36.896Z,11.00
2017-09-03T20:20:04.411Z,11.00
2017-09-03T20:22:31.971Z,11.00
2017-09-03T20:24:59.488Z,11.00
2017-09-03T20:27:26.991Z,11.00
2017-09-03T20:29:54.545Z,11.00
2017-09-03T20:32:22.055Z,11.00
2017-09-03T20:34:49.568Z,11.00
2017-09-03T20:37:17.148Z,10.90
2017-09-03T20:39:44.670Z,10.90
2017-09-03T20:42:12.180Z,10.80
2017-09-03T20:44:39.751Z,10.80
2017-09-03T20:47:07.259Z,10.80
2017-09-03T20:49:34.769Z,10.80
2017-09-03T20:52:02.342Z,10.90
2017-09-03T20:54:29.856Z,10.90
2017-09-03T20:56:57.378Z,10.90
2017-09-03T20:59:24.947Z,10.80
2017-09-03T21:01:52.471Z,10.70
2017-09-03T21:04:19.999Z,10.60
2017-09-03T21:06:47.799Z,10.50
2017-09-03T21:09:15.315Z,10.60
2017-09-03T21:11:42.831Z,10.70
2017-09-03T21:14:10.399Z,10.70
2017-09-03T21:16:37.923Z,10.60
2017-09-03T21:19:05.440Z,10.60
2017-09-03T21:21:33.006Z,10.60
2017-09-03T21:24:00.520Z,10.50
2017-09-03T21:26:28.048Z,10.50
2017-09-03T21:28:55.879Z,10.50
2017-09-03T21:31:23.391Z,10.60
2017-09-03T21:33:50.895Z,10.50
2017-09-03T21:36:18.679Z,10.50
2017-09-03T21:38:46.203Z,10.40
2017-09-03T21:41:13.735Z,10.30
2017-09-03T21:43:41.288Z,10.20
2017-09-03T21:46:08.795Z,10.30
2017-09-03T21:48:36.317Z,10.30
2017-09-03T21:51:03.899Z,10.40
2017-09-03T21:53:31.413Z,10.30
2017-09-03T21:55:58.920Z,10.20
2017-09-03T21:58:26.481Z,10.10
2017-09-03T22:00:53.995Z,10.10
2017-09-03T22:03:21.575Z,10.00
2017-09-03T22:05:49.138Z,9.90
2017-09-03T22:08:16.655Z,9.90
2017-09-03T22:10:44.163Z,9.90
2017-09-03T22:13:11.704Z,9.80
2017-09-03T22:15:39.212Z,9.80
2017-09-03T22:18:06.723Z,9.90
2017-09-03T22:20:34.319Z,9.90
2017-09-03T22:23:01.830Z,9.90
2017-09-03T22:25:29.338Z,9.90
2017-09-03T22:27:56.903Z,10.00
2017-09-03T22:30:24.408Z,10.00
2017-09-03T22:32:51.929Z,9.90
2017-09-03T22:35:19.739Z,9.80
2017-09-03T22:37:47.284Z,9.90
2017-09-03T22:40:14.799Z,9.90
2017-09-03T22:42:42.366Z,9.90
2017-09-03T22:45:09.870Z,9.80
2017-09-03T22:47:37.380Z,9.70
2017-09-03T22:50:05.272Z,9.70
2017-09-03T22:52:32.780Z,9.70
2017-09-03T22:55:00.287Z,9.70
2017-09-03T22:57:27.842Z,9.70
2017-09-03T22:59:55.352Z,9.70
2017-09-03T23:02:22.854Z,9.70
2017-09-03T23:04:50.416Z,9.70
2017-09-03T23:07:17.931Z,9.70
2017-09-03T23:09:45.443Z,9.70
2017-09-03T23:12:13.451Z,9.60
2017-09-03T23:14:40.976Z,9.60
2017-09-03T23:17:08.486Z,9.60
2017-09-03T23:19:36.044Z,9.60
2017-09-03T23:22:03.559Z,9.60
2017-09-03T23:24:31.067Z,9.50
2017-09-03T23:26:58.626Z,9.50
2017-09-03T23:29:26.150Z,9.60
2017-09-03T23:31:53.656Z,9.70
2017-09-03T23:34:21.452Z,9.70
2017-09-03T23:36:48.979Z,9.70
2017-09-03T23:39:16.497Z,9.80
2017-09-03T23:41:44.048Z,9.70
2017-09-03T23:44:11.558Z,9.70
2017-09-03T23:46:39.059Z,9.70
2017-09-03T23:49:07.699Z,9.50
2017-09-03T23:51:35.215Z,9.50
2017-09-03T23:54:02.793Z,9.40
2017-09-03T23:56:30.359Z,9.30
2017-09-03T23:58:57.871Z,9.40
